Time;durP1;ratioP1;P1;durP2;ratioP2;P2;SDS_P1;SDS_P2;PMS_P1;PMS_P2;Temp;Humidity;BMP_temperature;BMP_pressure;BME280_temperature;BME280_humidity;BME280_pressure;Samples;Min_cycle;Max_cycle;Signal;HPM_P1;HPM_P2
2023/09/05 00:00:12;;;;;;;2.90;2.70;;;20.80;99.90;;;;;;5074444;28;20325;-67
2023/09/05 00:02:40;;;;;;;2.92;2.72;;;20.80;99.90;;;;;;5080855;28;20214;-66
2023/09/05 00:05:11;;;;;;;3.10;2.70;;;20.80;99.90;;;;;;5087881;28;20217;-67
2023/09/05 00:07:39;;;;;;;3.38;3.08;;;20.90;99.90;;;;;;5088158;28;20226;-66
2023/09/05 00:10:07;;;;;;;3.25;2.95;;;20.90;99.90;;;;;;5075260;28;20215;-66
2023/09/05 00:12:34;;;;;;;2.80;2.60;;;20.90;99.90;;;;;;5067617;28;20211;-67
2023/09/05 00:15:02;;;;;;;2.63;2.50;;;20.90;99.90;;;;;;5083426;28;20211;-67
2023/09/05 00:17:30;;;;;;;2.85;2.63;;;20.90;99.90;;;;;;5087999;28;20207;-67
2023/09/05 00:19:56;;;;;;;2.65;2.45;;;20.90;99.90;;;;;;5087957;28;20911;-66
2023/09/05 00:22:25;;;;;;;7.18;3.10;;;20.80;99.90;;;;;;5088021;28;20213;-66
2023/09/05 00:24:52;;;;;;;3.47;3.17;;;20.80;99.90;;;;;;5091032;28;20702;-66
2023/09/05 00:27:19;;;;;;;2.70;2.50;;;20.70;99.90;;;;;;5103044;28;20284;-66
2023/09/05 00:29:46;;;;;;;2.63;2.42;;;20.70;99.90;;;;;;5087605;28;20207;-66
2023/09/05 00:32:13;;;;;;;2.95;2.50;;;20.70;99.90;;;;;;5069410;28;20249;-67
2023/09/05 00:34:41;;;;;;;3.00;2.70;;;20.70;99.90;;;;;;5067102;28;20247;-66
2023/09/05 00:37:09;;;;;;;3.00;2.67;;;20.70;99.90;;;;;;5066858;28;20247;-66
2023/09/05 00:39:41;;;;;;;3.05;2.85;;;20.70;99.90;;;;;;5069457;28;20233;-66
2023/09/05 00:42:10;;;;;;;2.70;2.50;;;20.60;99.90;;;;;;5086913;28;20298;-66
2023/09/05 00:44:38;;;;;;;2.47;2.38;;;20.60;99.90;;;;;;5085647;28;20294;-66
2023/09/05 00:47:05;;;;;;;2.40;2.30;;;20.60;99.90;;;;;;5086969;28;20289;-67
2023/09/05 00:49:39;;;;;;;3.45;2.67;;;20.60;99.90;;;;;;5087253;28;20203;-66
2023/09/05 00:52:07;;;;;;;3.10;2.50;;;20.60;99.90;;;;;;5085025;28;20201;-66
2023/09/05 00:54:35;;;;;;;4.22;2.80;;;20.60;99.90;;;;;;5082264;28;20739;-66
2023/09/05 00:57:04;;;;;;;3.05;2.80;;;20.50;99.90;;;;;;5067167;28;20574;-67
2023/09/05 00:59:31;;;;;;;2.95;2.75;;;20.50;99.90;;;;;;5066992;28;20710;-67
2023/09/05 01:01:58;;;;;;;3.30;3.10;;;20.50;99.90;;;;;;5066603;28;20338;-67
2023/09/05 01:04:25;;;;;;;3.10;2.90;;;20.50;99.90;;;;;;5067029;28;20306;-67
2023/09/05 01:06:59;;;;;;;2.83;2.70;;;20.50;99.90;;;;;;5083235;28;20689;-67
2023/09/05 01:09:33;;;;;;;3.65;3.17;;;20.50;99.90;;;;;;5086692;28;20661;-67
2023/09/05 01:12:03;;;;;;;3.30;3.10;;;20.50;99.90;;;;;;5086981;28;20199;-67
2023/09/05 01:14:29;;;;;;;3.92;3.00;;;20.50;99.90;;;;;;5086632;28;20207;-67
2023/09/05 01:17:01;;;;;;;3.30;3.10;;;20.50;99.90;;;;;;5086699;28;20318;-67
2023/09/05 01:19:29;;;;;;;3.00;2.80;;;20.40;99.90;;;;;;5085726;28;20226;-67
2023/09/05 01:22:05;;;;;;;2.90;2.70;;;20.40;99.90;;;;;;5066146;28;20215;-67
2023/09/05 01:24:35;;;;;;;3.22;2.85;;;20.40;99.90;;;;;;5065875;28;20243;-67
2023/09/05 01:27:04;;;;;;;2.97;2.77;;;20.30;99.90;;;;;;5066142;28;20903;-67
2023/09/05 01:29:35;;;;;;;3.17;2.88;;;20.30;99.90;;;;;;5066152;28;20219;-67
2023/09/05 01:32:03;;;;;;;2.80;2.70;;;20.30;99.90;;;;;;5066080;28;20196;-67
2023/09/05 01:34:30;;;;;;;4.20;3.23;;;20.30;99.90;;;;;;5077247;28;20204;-66
2023/09/05 01:36:57;;;;;;;4.40;2.93;;;20.30;99.90;;;;;;5065665;28;20578;-66
2023/09/05 01:39:24;;;;;;;3.03;2.60;;;20.30;99.90;;;;;;5065896;28;20699;-67
2023/09/05 01:41:53;;;;;;;3.07;2.87;;;20.30;99.90;;;;;;5082448;28;20768;-66
2023/09/05 01:44:20;;;;;;;3.20;2.80;;;20.20;99.90;;;;;;5085693;28;20742;-66
2023/09/05 01:46:47;;;;;;;2.77;2.57;;;20.20;99.90;;;;;;5068859;28;20216;-66
2023/09/05 01:49:14;;;;;;;3.88;2.83;;;20.20;99.90;;;;;;5086109;28;20211;-66
2023/09/05 01:51:41;;;;;;;2.77;2.57;;;20.20;99.90;;;;;;5086226;28;20293;-66
2023/09/05 01:54:08;;;;;;;3.28;2.65;;;20.10;99.90;;;;;;5087238;28;20215;-66
2023/09/05 01:56:35;;;;;;;3.20;3.00;;;20.10;99.90;;;;;;5106021;28;20206;-66
2023/09/05 01:59:03;;;;;;;4.27;2.80;;;20.00;99.90;;;;;;5106202;28;20212;-66
2023/09/05 02:01:30;;;;;;;3.27;2.90;;;20.00;99.90;;;;;;5087990;28;20231;-66
2023/09/05 02:03:57;;;;;;;3.00;2.70;;;20.00;99.90;;;;;;5065524;28;20302;-66
2023/09/05 02:06:23;;;;;;;2.78;2.58;;;20.00;99.90;;;;;;5065575;28;20318;-66
2023/09/05 02:08:50;;;;;;;3.10;2.90;;;20.00;99.90;;;;;;5065560;28;20756;-66
2023/09/05 02:11:17;;;;;;;3.93;3.20;;;20.00;99.90;;;;;;5085783;28;20211;-66
2023/09/05 02:13:44;;;;;;;3.60;2.60;;;20.00;99.90;;;;;;5085606;28;20301;-66
2023/09/05 02:16:18;;;;;;;4.47;3.33;;;20.00;99.90;;;;;;5082002;28;20735;-66
2023/09/05 02:18:45;;;;;;;3.67;3.30;;;20.00;99.90;;;;;;5085730;28;21024;-66
2023/09/05 02:21:12;;;;;;;3.20;2.90;;;20.00;99.90;;;;;;5085645;28;20333;-66
2023/09/05 02:23:39;;;;;;;3.47;2.90;;;20.00;99.90;;;;;;5085327;28;20303;-68
2023/09/05 02:26:06;;;;;;;3.33;2.60;;;19.90;99.90;;;;;;5079434;28;20307;-66
2023/09/05 02:28:33;;;;;;;3.22;2.92;;;19.90;99.90;;;;;;5064513;28;20214;-66
2023/09/05 02:31:05;;;;;;;3.40;3.10;;;19.90;99.90;;;;;;5064521;28;20199;-66
2023/09/05 02:33:36;;;;;;;2.67;2.47;;;19.80;99.90;;;;;;5064866;28;20294;-66
2023/09/05 02:36:15;;;;;;;2.77;2.67;;;19.70;99.90;;;;;;5064456;28;20650;-66
2023/09/05 02:38:42;;;;;;;2.93;2.73;;;19.70;99.90;;;;;;5067337;28;20194;-66
2023/09/05 02:41:11;;;;;;;3.00;2.80;;;19.70;99.90;;;;;;5085213;28;20238;-66
2023/09/05 02:43:38;;;;;;;3.37;3.13;;;19.60;99.90;;;;;;5085306;28;20588;-66
2023/09/05 02:46:06;;;;;;;3.03;2.70;;;19.60;99.90;;;;;;5084865;28;20214;-66
2023/09/05 02:48:36;;;;;;;3.93;2.93;;;19.50;99.90;;;;;;5085304;28;20207;-66
2023/09/05 02:51:05;;;;;;;3.37;3.07;;;19.50;99.90;;;;;;5078544;28;20735;-66
2023/09/05 02:53:32;;;;;;;3.33;2.80;;;19.40;99.90;;;;;;5065067;28;20743;-66
2023/09/05 02:55:59;;;;;;;2.87;2.70;;;19.50;99.90;;;;;;5098834;28;20238;-67
2023/09/05 02:58:27;;;;;;;2.73;2.60;;;19.40;99.90;;;;;;5096207;28;20661;-67
2023/09/05 03:00:59;;;;;;;3.80;3.23;;;19.40;99.90;;;;;;5084148;28;20729;-67
2023/09/05 03:03:26;;;;;;;3.20;3.00;;;19.30;99.90;;;;;;5079750;28;20652;-67
2023/09/05 03:05:55;;;;;;;3.20;3.00;;;19.30;99.90;;;;;;5064837;28;20211;-67
2023/09/05 03:08:21;;;;;;;3.40;3.20;;;19.30;99.90;;;;;;5064557;28;20634;-66
2023/09/05 03:10:51;;;;;;;2.97;2.70;;;19.30;99.90;;;;;;5064588;28;20296;-66
2023/09/05 03:13:18;;;;;;;2.97;2.70;;;19.30;99.90;;;;;;5079127;28;20217;-66
2023/09/05 03:15:45;;;;;;;3.10;2.90;;;19.30;99.90;;;;;;5083562;28;20298;-66
2023/09/05 03:18:11;;;;;;;3.00;2.80;;;19.40;99.90;;;;;;5084717;28;20306;-66
2023/09/05 03:20:38;;;;;;;2.93;2.67;;;19.30;99.90;;;;;;5065767;28;20322;-66
2023/09/05 03:23:07;;;;;;;4.20;2.60;;;19.30;99.90;;;;;;5063950;28;20927;-67
2023/09/05 03:25:34;;;;;;;3.40;2.70;;;19.40;99.90;;;;;;5064540;28;20207;-66
2023/09/05 03:28:01;;;;;;;2.90;2.70;;;19.40;99.90;;;;;;5064141;28;20211;-66
2023/09/05 03:30:28;;;;;;;4.60;2.90;;;19.40;99.90;;;;;;5064135;28;20497;-67
2023/09/05 03:32:55;;;;;;;2.93;2.73;;;19.30;99.90;;;;;;5064326;28;20294;-66
2023/09/05 03:35:22;;;;;;;7.10;2.73;;;19.30;99.90;;;;;;5064493;28;20361;-66
2023/09/05 03:37:49;;;;;;;3.30;3.00;;;19.40;99.90;;;;;;5071504;28;20241;-66
2023/09/05 03:40:17;;;;;;;4.40;3.00;;;19.40;99.90;;;;;;5084205;28;20219;-66
2023/09/05 03:42:44;;;;;;;4.27;3.10;;;19.40;99.90;;;;;;5083905;28;20245;-67
2023/09/05 03:45:11;;;;;;;2.73;2.53;;;19.40;99.90;;;;;;5084286;28;20207;-66
2023/09/05 03:47:38;;;;;;;4.57;3.10;;;19.30;99.90;;;;;;5084344;28;20293;-67
2023/09/05 03:50:06;;;;;;;3.37;2.80;;;19.20;99.90;;;;;;5083699;28;20681;-67
2023/09/05 03:52:33;;;;;;;3.43;3.13;;;19.20;99.90;;;;;;5080025;28;20238;-66
2023/09/05 03:55:00;;;;;;;3.60;3.40;;;19.20;99.90;;;;;;5073057;28;20311;-67
2023/09/05 03:57:28;;;;;;;3.00;2.80;;;19.10;99.90;;;;;;5064255;28;20219;-67
2023/09/05 03:59:55;;;;;;;2.83;2.63;;;19.10;99.90;;;;;;5063829;28;20294;-66
2023/09/05 04:02:22;;;;;;;3.23;2.87;;;19.10;99.90;;;;;;5063410;28;20318;-67
2023/09/05 04:04:49;;;;;;;2.57;2.37;;;19.20;99.90;;;;;;5063886;28;20294;-66
2023/09/05 04:07:20;;;;;;;3.30;2.80;;;19.20;99.90;;;;;;5064020;28;20262;-66
2023/09/05 04:09:48;;;;;;;3.00;2.70;;;19.20;99.90;;;;;;5070195;28;20243;-66
2023/09/05 04:12:15;;;;;;;3.93;2.70;;;19.20;99.90;;;;;;5064217;28;20286;-67
2023/09/05 04:14:44;;;;;;;2.87;2.57;;;19.30;99.90;;;;;;5064040;28;20204;-66
2023/09/05 04:17:10;;;;;;;2.90;2.73;;;19.20;99.90;;;;;;5064344;28;20242;-66
2023/09/05 04:19:37;;;;;;;4.87;3.17;;;19.30;99.90;;;;;;5064679;28;20315;-66
2023/09/05 04:22:04;;;;;;;3.40;3.13;;;19.30;99.90;;;;;;5064111;28;20706;-67
2023/09/05 04:24:31;;;;;;;2.83;2.63;;;19.20;99.90;;;;;;5079205;28;20763;-67
2023/09/05 04:26:59;;;;;;;15.83;3.47;;;19.20;99.90;;;;;;5101565;28;20199;-67
2023/09/05 04:29:26;;;;;;;5.27;3.60;;;19.20;99.90;;;;;;5067312;28;20203;-67
2023/09/05 04:31:55;;;;;;;8.57;3.53;;;19.10;99.90;;;;;;5067289;28;20214;-67
2023/09/05 04:34:22;;;;;;;7.90;3.20;;;19.10;99.90;;;;;;5094755;28;20202;-67
2023/09/05 04:36:49;;;;;;;4.00;2.70;;;19.10;99.90;;;;;;5107624;28;20747;-67
2023/09/05 04:39:16;;;;;;;3.47;3.17;;;19.00;99.90;;;;;;5068776;28;20202;-66
2023/09/05 04:41:43;;;;;;;3.10;2.60;;;19.00;99.90;;;;;;5067054;28;20234;-67
2023/09/05 04:44:09;;;;;;;3.10;2.80;;;19.00;99.90;;;;;;5067265;28;20243;-67
2023/09/05 04:46:39;;;;;;;3.10;2.80;;;19.10;99.90;;;;;;5069997;28;20203;-67
2023/09/05 04:49:09;;;;;;;2.90;2.70;;;19.10;99.90;;;;;;5067229;28;20199;-66
2023/09/05 04:51:35;;;;;;;2.90;2.70;;;19.10;99.90;;;;;;5067441;28;20241;-66
2023/09/05 04:54:02;;;;;;;3.43;2.97;;;19.10;99.90;;;;;;5066502;28;20211;-66
2023/09/05 04:56:29;;;;;;;6.83;3.30;;;19.10;99.90;;;;;;5067122;28;20641;-66
2023/09/05 04:58:56;;;;;;;2.87;2.77;;;19.10;99.90;;;;;;5067046;28;21114;-66
2023/09/05 05:01:23;;;;;;;3.13;2.90;;;19.10;99.90;;;;;;5066283;28;20246;-67
2023/09/05 05:03:50;;;;;;;5.00;3.20;;;19.10;99.90;;;;;;5076992;28;20427;-66
2023/09/05 05:06:18;;;;;;;3.20;2.90;;;19.00;99.90;;;;;;5073966;28;20235;-66
2023/09/05 05:08:45;;;;;;;2.80;2.70;;;19.00;99.90;;;;;;5066351;28;20299;-67
2023/09/05 05:11:11;;;;;;;3.27;2.87;;;19.00;99.90;;;;;;5066516;28;20203;-66
2023/09/05 05:13:38;;;;;;;3.10;2.90;;;19.00;99.90;;;;;;5066435;28;20321;-66
2023/09/05 05:16:05;;;;;;;3.20;2.90;;;19.00;99.90;;;;;;5081147;28;20191;-66
2023/09/05 05:18:32;;;;;;;3.93;2.90;;;19.00;99.90;;;;;;5086252;28;20199;-66
2023/09/05 05:20:59;;;;;;;3.77;3.20;;;19.00;99.90;;;;;;5065255;28;20233;-65
2023/09/05 05:23:27;;;;;;;2.87;2.73;;;19.00;99.90;;;;;;5065839;28;20208;-66
2023/09/05 05:25:59;;;;;;;4.47;3.40;;;19.00;99.90;;;;;;5083291;28;20817;-65
2023/09/05 05:28:26;;;;;;;3.73;3.40;;;19.00;99.90;;;;;;5084742;28;20200;-65
2023/09/05 05:30:53;;;;;;;3.03;2.83;;;19.00;99.90;;;;;;5077130;28;20322;-66
2023/09/05 05:33:20;;;;;;;3.43;2.90;;;19.00;99.90;;;;;;5078022;28;20624;-66
2023/09/05 05:35:53;;;;;;;3.67;3.00;;;19.00;99.90;;;;;;5085462;28;20293;-67
2023/09/05 05:38:20;;;;;;;3.30;3.00;;;19.00;99.90;;;;;;5084705;28;20223;-66
2023/09/05 05:40:48;;;;;;;3.30;3.10;;;19.10;99.90;;;;;;5085253;28;20313;-66
2023/09/05 05:43:15;;;;;;;6.40;2.80;;;19.10;99.90;;;;;;5076557;28;20204;-66
2023/09/05 05:45:42;;;;;;;4.47;2.90;;;19.10;99.90;;;;;;5065191;28;20692;-66
2023/09/05 05:48:10;;;;;;;3.07;2.87;;;19.10;99.90;;;;;;5064656;28;20221;-66
2023/09/05 05:50:37;;;;;;;2.83;2.57;;;19.20;99.90;;;;;;5064594;28;20946;-66
2023/09/05 05:53:04;;;;;;;4.17;3.23;;;19.20;99.90;;;;;;5064350;28;20334;-66
2023/09/05 05:55:31;;;;;;;2.83;2.63;;;19.20;99.90;;;;;;5091249;28;20218;-66
2023/09/05 05:58:00;;;;;;;3.20;2.90;;;19.20;99.90;;;;;;5070610;28;20576;-66
2023/09/05 06:00:29;;;;;;;2.93;2.73;;;19.20;99.90;;;;;;5065830;28;20243;-66
2023/09/05 06:02:56;;;;;;;3.33;3.03;;;19.20;99.90;;;;;;5068453;28;20738;-66
2023/09/05 06:05:24;;;;;;;5.93;3.10;;;19.20;99.90;;;;;;5064089;28;20294;-66
2023/09/05 06:07:51;;;;;;;3.53;2.93;;;19.30;99.90;;;;;;5079017;28;20238;-66
2023/09/05 06:10:18;;;;;;;3.30;3.00;;;19.30;99.90;;;;;;5068234;28;20860;-66
2023/09/05 06:12:45;;;;;;;3.20;2.67;;;19.30;99.90;;;;;;5077679;28;20286;-66
2023/09/05 06:15:13;;;;;;;2.63;2.53;;;19.40;99.90;;;;;;5063983;28;20230;-66
2023/09/05 06:17:41;;;;;;;3.20;2.97;;;19.40;99.90;;;;;;5064003;28;20253;-66
2023/09/05 06:20:09;;;;;;;3.20;2.80;;;19.40;99.90;;;;;;5063398;28;20303;-66
2023/09/05 06:22:36;;;;;;;2.97;2.77;;;19.40;99.90;;;;;;5063643;28;20225;-66
2023/09/05 06:25:06;;;;;;;5.47;2.77;;;19.50;99.90;;;;;;5087521;28;20216;-66
2023/09/05 06:27:33;;;;;;;2.90;2.70;;;19.50;99.90;;;;;;5082332;28;20293;-66
2023/09/05 06:30:00;;;;;;;3.57;2.77;;;19.50;99.90;;;;;;5084060;28;20286;-66
2023/09/05 06:32:28;;;;;;;3.87;2.90;;;19.60;99.90;;;;;;5084254;28;20208;-66
2023/09/05 06:34:55;;;;;;;4.87;2.77;;;19.60;99.90;;;;;;5084248;28;20677;-66
2023/09/05 06:37:24;;;;;;;4.03;2.90;;;19.60;99.90;;;;;;5084107;28;20203;-66
2023/09/05 06:39:51;;;;;;;3.47;3.17;;;19.70;99.90;;;;;;5084359;28;20225;-66
2023/09/05 06:42:18;;;;;;;3.03;2.83;;;19.70;99.90;;;;;;5084601;28;20230;-66
2023/09/05 06:44:45;;;;;;;2.97;2.77;;;19.70;99.90;;;;;;5085241;28;20290;-66
2023/09/05 06:47:12;;;;;;;3.67;3.07;;;19.70;99.90;;;;;;5085447;28;20206;-67
2023/09/05 06:49:40;;;;;;;3.07;2.70;;;19.70;99.90;;;;;;5084124;28;20322;-66
2023/09/05 06:52:07;;;;;;;2.80;2.60;;;19.70;99.90;;;;;;5085278;28;20784;-66
2023/09/05 06:54:34;;;;;;;3.70;2.80;;;19.80;99.90;;;;;;5090305;28;20232;-66
2023/09/05 06:57:01;;;;;;;4.40;3.00;;;19.80;99.90;;;;;;5100872;28;20649;-66
2023/09/05 06:59:28;;;;;;;3.93;2.60;;;19.90;99.90;;;;;;5084326;28;20733;-66
2023/09/05 07:01:55;;;;;;;3.37;3.07;;;19.90;99.90;;;;;;5083947;28;20265;-66
2023/09/05 07:04:22;;;;;;;3.43;3.00;;;19.90;99.90;;;;;;5084528;28;20979;-66
2023/09/05 07:06:50;;;;;;;20.77;3.80;;;20.00;99.90;;;;;;5083924;28;20237;-66
2023/09/05 07:09:17;;;;;;;6.45;3.28;;;20.00;99.90;;;;;;5084249;28;20210;-66
2023/09/05 07:11:44;;;;;;;2.90;2.70;;;20.00;99.90;;;;;;5084915;28;20256;-66
2023/09/05 07:14:11;;;;;;;3.13;2.93;;;20.10;99.90;;;;;;5084581;28;20298;-66
2023/09/05 07:16:38;;;;;;;2.83;2.47;;;20.10;99.90;;;;;;5084558;28;20687;-66
2023/09/05 07:19:05;;;;;;;3.60;2.67;;;20.10;99.90;;;;;;5084626;28;20206;-66
2023/09/05 07:21:32;;;;;;;3.23;2.93;;;20.20;99.90;;;;;;5084495;28;21012;-66
2023/09/05 07:24:00;;;;;;;3.17;2.80;;;20.20;99.90;;;;;;5084768;28;20337;-66
2023/09/05 07:26:27;;;;;;;3.10;2.85;;;20.30;99.90;;;;;;5091246;28;20307;-66
2023/09/05 07:28:54;;;;;;;3.10;2.90;;;20.30;99.90;;;;;;5084387;28;20547;-66
2023/09/05 07:31:22;;;;;;;5.73;2.83;;;20.40;99.90;;;;;;5083939;28;20210;-66
2023/09/05 07:33:49;;;;;;;3.00;2.80;;;20.40;99.90;;;;;;5084660;28;20214;-66
2023/09/05 07:36:16;;;;;;;2.65;2.50;;;20.40;99.90;;;;;;5084458;28;20568;-66
2023/09/05 07:38:43;;;;;;;2.70;2.50;;;20.50;99.90;;;;;;5084372;28;20210;-66
2023/09/05 07:41:11;;;;;;;3.05;2.83;;;20.60;99.90;;;;;;5064506;28;20234;-66
2023/09/05 07:43:38;;;;;;;3.45;2.70;;;20.60;99.90;;;;;;5064863;28;20292;-66
2023/09/05 07:46:05;;;;;;;3.88;2.83;;;20.70;99.90;;;;;;5064483;28;20650;-67
2023/09/05 07:48:32;;;;;;;2.65;2.47;;;20.70;99.90;;;;;;5064541;28;20215;-67
2023/09/05 07:51:03;;;;;;;3.10;2.90;;;20.70;99.90;;;;;;5064240;28;20223;-66
2023/09/05 07:53:31;;;;;;;3.22;2.53;;;20.80;99.90;;;;;;5064266;28;20215;-67
2023/09/05 07:55:58;;;;;;;3.10;2.90;;;20.80;99.90;;;;;;5097800;28;20217;-66
2023/09/05 07:58:27;;;;;;;5.30;2.77;;;20.80;99.90;;;;;;5104798;28;20214;-66
2023/09/05 08:00:54;;;;;;;2.90;2.65;;;20.90;99.90;;;;;;5106093;28;20682;-66
2023/09/05 08:03:21;;;;;;;2.70;2.33;;;20.90;99.90;;;;;;5108354;28;20242;-66
2023/09/05 08:05:50;;;;;;;4.85;2.40;;;20.90;99.90;;;;;;5107669;28;20245;-66
2023/09/05 08:08:17;;;;;;;2.78;2.58;;;21.00;99.90;;;;;;5108490;28;20233;-66
2023/09/05 08:10:44;;;;;;;3.40;2.40;;;21.00;99.90;;;;;;5108690;28;20304;-66
2023/09/05 08:13:12;;;;;;;2.63;2.38;;;21.10;99.90;;;;;;5109210;28;20301;-66
2023/09/05 08:15:43;;;;;;;2.70;2.40;;;21.20;99.90;;;;;;5108658;28;20210;-66
2023/09/05 08:18:11;;;;;;;2.53;2.42;;;21.20;99.90;;;;;;5089267;28;20218;-66
2023/09/05 08:20:39;;;;;;;4.85;2.67;;;21.30;99.90;;;;;;5068071;28;20204;-67
2023/09/05 08:23:06;;;;;;;2.72;2.53;;;21.30;99.90;;;;;;5084301;28;20587;-67
2023/09/05 08:25:33;;;;;;;3.35;2.58;;;21.40;99.90;;;;;;5083204;28;20450;-67
2023/09/05 08:28:00;;;;;;;4.45;2.40;;;21.40;99.90;;;;;;5079261;28;20249;-67
2023/09/05 08:30:28;;;;;;;2.92;2.75;;;21.50;99.90;;;;;;5082713;28;20207;-66
2023/09/05 08:32:57;;;;;;;2.50;2.30;;;21.50;99.90;;;;;;5067167;28;20702;-66
2023/09/05 08:35:24;;;;;;;3.08;2.85;;;21.60;99.90;;;;;;5075338;28;20309;-66
2023/09/05 08:37:52;;;;;;;2.60;2.40;;;21.70;99.90;;;;;;5107427;28;20234;-66
2023/09/05 08:40:20;;;;;;;2.40;2.30;;;21.70;99.90;;;;;;5107771;28;20544;-66
2023/09/05 08:42:47;;;;;;;2.28;2.17;;;21.70;99.90;;;;;;5106707;28;20248;-67
2023/09/05 08:45:20;;;;;;;2.83;2.42;;;21.80;99.90;;;;;;5107903;28;20205;-67
2023/09/05 08:47:47;;;;;;;4.22;2.65;;;21.90;99.90;;;;;;5107779;28;20273;-67
2023/09/05 08:50:16;;;;;;;2.53;2.30;;;21.90;99.90;;;;;;5097449;28;20206;-66
2023/09/05 08:52:44;;;;;;;2.92;2.17;;;21.90;99.90;;;;;;5087254;28;20214;-66
2023/09/05 08:55:13;;;;;;;2.55;2.35;;;22.00;99.90;;;;;;5097790;28;20302;-67
2023/09/05 08:57:41;;;;;;;2.55;2.10;;;22.10;99.90;;;;;;5107863;28;20685;-67
2023/09/05 09:00:09;;;;;;;4.13;2.33;;;22.20;99.90;;;;;;5107086;28;20251;-67
2023/09/05 09:02:36;;;;;;;4.65;2.42;;;22.30;99.90;;;;;;5107146;28;20703;-66
2023/09/05 09:05:03;;;;;;;2.35;2.15;;;22.30;99.90;;;;;;5107228;28;20213;-66
2023/09/05 09:07:32;;;;;;;3.83;2.33;;;22.40;99.90;;;;;;5107211;28;20785;-66
2023/09/05 09:09:59;;;;;;;2.47;2.28;;;22.40;99.90;;;;;;5107246;28;20237;-67
2023/09/05 09:12:29;;;;;;;2.53;2.08;;;22.50;99.90;;;;;;5103711;28;20652;-65
2023/09/05 09:14:56;;;;;;;2.30;2.10;;;22.50;99.90;;;;;;5086914;28;20213;-66
2023/09/05 09:17:25;;;;;;;3.13;2.28;;;22.70;99.90;;;;;;5087198;28;20213;-66
2023/09/05 09:19:53;;;;;;;2.22;2.03;;;22.80;99.90;;;;;;5086379;28;20789;-65
2023/09/05 09:22:24;;;;;;;2.10;2.00;;;22.90;99.90;;;;;;5086680;28;20227;-66
2023/09/05 09:24:53;;;;;;;2.83;2.00;;;22.90;99.90;;;;;;5086572;28;20206;-66
2023/09/05 09:27:22;;;;;;;2.03;1.92;;;23.00;99.90;;;;;;5086392;28;20316;-66
2023/09/05 09:29:54;;;;;;;2.00;1.90;;;23.10;99.90;;;;;;5085828;28;20214;-65
2023/09/05 09:32:22;;;;;;;2.28;2.10;;;23.10;99.90;;;;;;5075900;28;20314;-65
2023/09/05 09:34:51;;;;;;;1.83;1.73;;;23.30;99.90;;;;;;5085692;28;20332;-66
2023/09/05 09:37:24;;;;;;;2.60;1.85;;;23.40;99.90;;;;;;5085730;28;20939;-66
2023/09/05 09:39:58;;;;;;;2.38;1.90;;;23.50;99.90;;;;;;5085509;28;20211;-66
2023/09/05 09:42:25;;;;;;;3.40;1.75;;;23.60;99.90;;;;;;5085945;28;20716;-66
2023/09/05 09:44:53;;;;;;;4.18;2.30;;;23.50;99.90;;;;;;5086213;28;20207;-66
2023/09/05 09:47:20;;;;;;;2.70;1.77;;;23.70;99.90;;;;;;5075175;28;20212;-66
2023/09/05 09:49:51;;;;;;;2.80;1.80;;;23.70;99.90;;;;;;5065704;28;20761;-65
2023/09/05 09:52:21;;;;;;;1.73;1.60;;;23.70;99.90;;;;;;5066109;28;20203;-66
2023/09/05 09:54:50;;;;;;;2.13;2.03;;;23.90;99.90;;;;;;5079775;28;20210;-65
2023/09/05 09:57:23;;;;;;;1.77;1.67;;;23.90;99.90;;;;;;5106535;28;20627;-66
2023/09/05 09:59:51;;;;;;;1.70;1.60;;;23.90;99.90;;;;;;5106878;28;20998;-66
2023/09/05 10:02:19;;;;;;;2.33;1.42;;;24.00;99.90;;;;;;5105887;28;20678;-65
2023/09/05 10:04:46;;;;;;;3.20;1.60;;;24.00;99.90;;;;;;5106327;28;20300;-66
2023/09/05 10:07:15;;;;;;;1.63;1.63;;;24.10;99.90;;;;;;5106134;28;20226;-66
2023/09/05 10:09:43;;;;;;;4.18;1.63;;;24.20;99.90;;;;;;5095179;28;20242;-66
2023/09/05 10:12:11;;;;;;;1.60;1.50;;;24.30;99.90;;;;;;5085494;28;20318;-66
2023/09/05 10:14:41;;;;;;;1.30;1.30;;;24.30;99.90;;;;;;5086184;28;20290;-65
2023/09/05 10:17:09;;;;;;;1.50;1.40;;;24.40;99.90;;;;;;5085726;28;20293;-65
2023/09/05 10:19:38;;;;;;;3.83;1.60;;;24.50;99.90;;;;;;5086199;28;20248;-67
2023/09/05 10:22:06;;;;;;;1.50;1.40;;;24.50;99.90;;;;;;5085512;28;20314;-66
2023/09/05 10:24:35;;;;;;;1.60;1.50;;;24.60;99.90;;;;;;5085457;28;20325;-66
2023/09/05 10:27:03;;;;;;;1.70;1.60;;;24.80;99.90;;;;;;5085619;28;20221;-66
2023/09/05 10:29:44;;;;;;;1.65;1.55;;;24.90;99.90;;;;;;5085790;28;20198;-66
2023/09/05 10:32:14;;;;;;;2.00;1.50;;;25.00;99.90;;;;;;5066479;28;20230;-66
2023/09/05 10:34:59;;;;;;;1.63;1.55;;;25.10;99.90;;;;;;5065237;28;20670;-66
2023/09/05 10:37:45;;;;;;;2.92;1.60;;;25.20;99.90;;;;;;5065002;28;20200;-66
2023/09/05 10:40:13;;;;;;;1.60;1.50;;;25.30;99.90;;;;;;5065297;28;20577;-67
2023/09/05 10:42:44;;;;;;;1.58;1.40;;;25.40;99.90;;;;;;5071158;28;20224;-66
2023/09/05 10:45:29;;;;;;;2.53;1.60;;;25.60;99.90;;;;;;5064829;28;20699;-66
2023/09/05 10:48:01;;;;;;;2.70;1.80;;;25.60;99.90;;;;;;5064197;28;20286;-66
2023/09/05 10:50:28;;;;;;;3.47;1.90;;;25.70;99.90;;;;;;5065296;28;20282;-66
2023/09/05 10:53:22;;;;;;;1.65;1.55;;;25.80;99.90;;;;;;5064382;28;20302;-67
2023/09/05 10:55:52;;;;;;;1.83;1.73;;;26.00;99.90;;;;;;5096681;28;20210;-67
2023/09/05 10:58:38;;;;;;;1.90;1.80;;;26.00;99.90;;;;;;5105801;28;20206;-67
2023/09/05 11:01:44;;;;;;;1.77;1.67;;;26.10;99.90;;;;;;5105107;28;20249;-66
2023/09/05 11:04:20;;;;;;;1.70;1.48;;;26.10;99.90;;;;;;5105433;28;20306;-67
2023/09/05 11:06:57;;;;;;;2.58;1.70;;;26.20;99.90;;;;;;5087290;28;20317;-66
2023/09/05 11:09:25;;;;;;;2.55;1.45;;;26.30;99.90;;;;;;5084736;28;20297;-67
2023/09/05 11:11:53;;;;;;;1.90;1.67;;;26.40;99.90;;;;;;5084327;28;20203;-67
2023/09/05 11:14:30;;;;;;;2.67;1.73;;;26.40;99.90;;;;;;5084936;28;20210;-67
2023/09/05 11:16:57;;;;;;;2.05;1.45;;;26.50;99.90;;;;;;5084725;28;20186;-67
2023/09/05 11:19:40;;;;;;;2.35;1.88;;;26.60;99.90;;;;;;5084604;28;20217;-67
2023/09/05 11:22:14;;;;;;;1.77;1.60;;;26.80;99.90;;;;;;5084338;28;20201;-67
2023/09/05 11:24:46;;;;;;;2.22;1.70;;;26.90;99.90;;;;;;5088720;28;20572;-66
2023/09/05 11:27:14;;;;;;;3.42;1.63;;;27.00;99.90;;;;;;5104757;28;20190;-68
2023/09/05 11:29:42;;;;;;;4.13;1.70;;;27.20;99.90;;;;;;5105057;28;20259;-67
2023/09/05 11:32:13;;;;;;;2.50;1.85;;;27.20;99.90;;;;;;5085826;28;20203;-66
2023/09/05 11:34:43;;;;;;;2.38;1.77;;;27.40;99.90;;;;;;5084877;28;20841;-67
2023/09/05 11:37:10;;;;;;;1.60;1.50;;;27.40;99.90;;;;;;5088933;28;20206;-67
2023/09/05 11:39:37;;;;;;;2.40;1.70;;;27.40;99.90;;;;;;5079584;28;20204;-67
2023/09/05 11:42:04;;;;;;;2.85;2.20;;;27.40;99.90;;;;;;5068301;28;20219;-67
2023/09/05 11:44:38;;;;;;;2.38;1.83;;;27.50;99.90;;;;;;5068256;28;20775;-66
2023/09/05 11:47:06;;;;;;;2.10;2.00;;;27.70;99.90;;;;;;5068275;28;20203;-66
2023/09/05 11:49:34;;;;;;;2.05;1.95;;;27.70;99.90;;;;;;5068343;28;20732;-66
2023/09/05 11:52:04;;;;;;;2.00;1.90;;;27.90;99.90;;;;;;5067902;28;20211;-66
2023/09/05 11:54:31;;;;;;;1.90;1.80;;;28.00;99.90;;;;;;5077405;28;20347;-67
2023/09/05 11:56:59;;;;;;;2.50;1.83;;;28.20;99.90;;;;;;5108699;28;20237;-67
2023/09/05 11:59:26;;;;;;;2.72;2.00;;;28.20;99.90;;;;;;5108444;28;20246;-67
2023/09/05 12:01:53;;;;;;;3.33;2.08;;;28.30;99.90;;;;;;5099368;28;20326;-66
2023/09/05 12:04:21;;;;;;;3.40;2.00;;;28.30;99.90;;;;;;5088592;28;20321;-66
2023/09/05 12:06:51;;;;;;;1.80;1.70;;;28.50;99.90;;;;;;5088106;28;20215;-67
2023/09/05 12:09:21;;;;;;;2.92;1.95;;;28.50;99.90;;;;;;5088082;28;20752;-67
2023/09/05 12:11:50;;;;;;;1.58;1.48;;;28.60;99.90;;;;;;5088020;28;20195;-66
2023/09/05 12:14:20;;;;;;;2.13;1.70;;;28.70;99.90;;;;;;5088473;28;20285;-66
2023/09/05 12:16:47;;;;;;;2.15;1.58;;;28.80;99.90;;;;;;5088150;28;20210;-67
2023/09/05 12:19:14;;;;;;;1.92;1.83;;;28.90;99.90;;;;;;5088182;28;21016;-66
2023/09/05 12:21:43;;;;;;;3.00;1.80;;;28.90;99.90;;;;;;5087867;28;20210;-67
2023/09/05 12:24:25;;;;;;;1.50;1.40;;;29.00;99.90;;;;;;5087412;28;20258;-66
2023/09/05 12:26:53;;;;;;;3.33;1.75;;;29.20;99.90;;;;;;5087977;28;20282;-67
2023/09/05 12:29:24;;;;;;;1.80;1.27;;;29.30;99.90;;;;;;5087737;28;20233;-66
2023/09/05 12:31:51;;;;;;;2.65;1.45;;;29.40;99.90;;;;;;5087339;28;20195;-66
2023/09/05 12:34:19;;;;;;;1.60;1.50;;;29.60;99.30;;;;;;5087958;28;20644;-66
2023/09/05 12:36:46;;;;;;;1.60;1.50;;;29.80;98.80;;;;;;5087376;28;20962;-67
2023/09/05 12:39:13;;;;;;;1.48;1.38;;;29.80;99.20;;;;;;5087785;28;20310;-66
2023/09/05 12:41:42;;;;;;;1.88;1.50;;;29.80;99.40;;;;;;5087875;28;20305;-67
2023/09/05 12:44:09;;;;;;;1.85;1.40;;;29.90;99.10;;;;;;5087614;28;20238;-66
2023/09/05 12:46:36;;;;;;;1.50;1.40;;;30.00;99.20;;;;;;5087729;28;20665;-67
2023/09/05 12:49:03;;;;;;;1.60;1.35;;;30.20;98.60;;;;;;5087271;28;20203;-66
2023/09/05 12:51:33;;;;;;;1.58;1.48;;;30.30;98.30;;;;;;5087714;28;20206;-67
2023/09/05 12:54:00;;;;;;;1.85;1.50;;;30.30;98.20;;;;;;5087817;28;20242;-67